Time;durP1;ratioP1;P1;durP2;ratioP2;P2;SDS_P1;SDS_P2;PMS_P1;PMS_P2;Temp;Humidity;BMP_temperature;BMP_pressure;BME280_temperature;BME280_humidity;BME280_pressure;Samples;Min_cycle;Max_cycle;Signal;HPM_P1;HPM_P2
2021/01/29 00:00:48;;;;;;;;;;;18.50;38.00;;;;;;466584;256;1172;-53
2021/01/29 00:02:49;;;;;;;;;;;18.50;38.10;;;;;;470642;253;1229;-53
2021/01/29 00:04:51;;;;;;;;;;;18.40;38.10;;;;;;466680;255;1214;-53
2021/01/29 00:06:52;;;;;;;;;;;18.40;38.10;;;;;;470664;253;1350;-53
2021/01/29 00:08:53;;;;;;;;;;;18.40;38.10;;;;;;466681;255;1208;-53
2021/01/29 00:10:54;;;;;;;;;;;18.40;38.20;;;;;;470800;253;1206;-53
2021/01/29 00:12:56;;;;;;;;;;;18.40;38.20;;;;;;466705;255;1249;-53
2021/01/29 00:14:57;;;;;;;;;;;18.30;38.20;;;;;;470645;253;2199;-53
2021/01/29 00:16:58;;;;;;;;;;;18.30;38.20;;;;;;466753;255;1369;-53
2021/01/29 00:19:00;;;;;;;;;;;18.30;38.30;;;;;;470688;253;1187;-53
2021/01/29 00:21:01;;;;;;;;;;;18.30;38.30;;;;;;466573;256;1282;-53
2021/01/29 00:23:02;;;;;;;;;;;18.30;38.30;;;;;;470789;253;1375;-53
2021/01/29 00:25:03;;;;;;;;;;;18.30;38.40;;;;;;466601;256;1388;-53
2021/01/29 00:27:05;;;;;;;;;;;18.20;38.30;;;;;;470858;253;1227;-53
2021/01/29 00:29:06;;;;;;;;;;;18.20;38.30;;;;;;466613;256;1260;-53
2021/01/29 00:31:07;;;;;;;;;;;18.20;38.40;;;;;;470892;253;1189;-53
2021/01/29 00:33:08;;;;;;;;;;;18.20;38.40;;;;;;466677;255;1538;-53
2021/01/29 00:35:10;;;;;;;;;;;18.20;38.40;;;;;;470716;253;2187;-53
2021/01/29 00:37:11;;;;;;;;;;;18.20;38.50;;;;;;466605;255;1356;-53
2021/01/29 00:39:12;;;;;;;;;;;18.10;38.50;;;;;;470729;253;1203;-53
2021/01/29 00:41:14;;;;;;;;;;;18.10;38.50;;;;;;466800;255;1268;-53
2021/01/29 00:43:15;;;;;;;;;;;18.10;38.50;;;;;;470717;253;1291;-53
2021/01/29 00:45:16;;;;;;;;;;;18.10;38.60;;;;;;466631;255;1246;-53
2021/01/29 00:47:17;;;;;;;;;;;18.10;38.60;;;;;;470743;253;1235;-53
2021/01/29 00:49:19;;;;;;;;;;;18.00;37.30;;;;;;466789;255;1165;-53
2021/01/29 00:51:20;;;;;;;;;;;18.00;38.60;;;;;;470737;253;1305;-53
2021/01/29 00:53:21;;;;;;;;;;;18.00;38.60;;;;;;466776;255;1591;-53
2021/01/29 00:55:23;;;;;;;;;;;18.00;38.60;;;;;;470852;253;2135;-53
2021/01/29 00:57:24;;;;;;;;;;;18.00;38.70;;;;;;466655;255;1294;-53
2021/01/29 00:59:25;;;;;;;;;;;18.00;38.70;;;;;;470835;253;1144;-53
2021/01/29 01:01:26;;;;;;;;;;;17.90;38.70;;;;;;466593;256;1159;-53
2021/01/29 01:03:28;;;;;;;;;;;17.90;37.40;;;;;;470761;252;1326;-53
2021/01/29 01:05:29;;;;;;;;;;;17.90;38.70;;;;;;466632;256;1259;-54
2021/01/29 01:07:30;;;;;;;;;;;17.90;38.80;;;;;;470689;253;1282;-53
2021/01/29 01:09:32;;;;;;;;;;;17.90;38.80;;;;;;466720;255;1291;-53
2021/01/29 01:11:33;;;;;;;;;;;17.90;38.80;;;;;;470660;253;1418;-52
2021/01/29 01:13:34;;;;;;;;;;;17.90;38.80;;;;;;470790;252;1329;-53
2021/01/29 01:15:35;;;;;;;;;;;17.90;38.80;;;;;;466720;255;2142;-53
2021/01/29 01:17:37;;;;;;;;;;;17.90;38.80;;;;;;470754;253;1262;-53
2021/01/29 01:19:38;;;;;;;;;;;17.90;38.80;;;;;;466653;256;1259;-53
2021/01/29 01:21:39;;;;;;;;;;;17.90;38.80;;;;;;470705;253;1291;-53
2021/01/29 01:23:41;;;;;;;;;;;17.80;38.80;;;;;;466817;255;1151;-53
2021/01/29 01:25:42;;;;;;;;;;;17.80;38.80;;;;;;470708;253;1445;-53
2021/01/29 01:27:43;;;;;;;;;;;17.80;38.80;;;;;;466640;256;1374;-53
2021/01/29 01:29:44;;;;;;;;;;;17.80;37.50;;;;;;470813;253;1162;-53
2021/01/29 01:31:46;;;;;;;;;;;17.80;38.90;;;;;;466652;254;1362;-53
2021/01/29 01:33:47;;;;;;;;;;;17.80;38.90;;;;;;470741;253;1169;-53
2021/01/29 01:35:49;;;;;;;;;;;17.80;38.70;;;;;;466602;256;2205;-53
2021/01/29 01:37:50;;;;;;;;;;;17.90;38.80;;;;;;470688;253;1488;-53
2021/01/29 01:39:51;;;;;;;;;;;17.90;38.70;;;;;;466613;255;1350;-54
2021/01/29 01:41:53;;;;;;;;;;;18.00;38.70;;;;;;470709;253;1440;-53
2021/01/29 01:43:54;;;;;;;;;;;18.00;38.70;;;;;;466601;256;1229;-53
2021/01/29 01:45:55;;;;;;;;;;;18.00;38.70;;;;;;470787;253;1248;-53
2021/01/29 01:47:57;;;;;;;;;;;18.00;38.60;;;;;;466731;255;1246;-53
2021/01/29 01:49:58;;;;;;;;;;;18.00;38.60;;;;;;470737;253;1402;-54
2021/01/29 01:51:59;;;;;;;;;;;18.00;38.50;;;;;;466643;256;1359;-54
2021/01/29 01:54:00;;;;;;;;;;;18.10;38.50;;;;;;470706;249;1507;-54
2021/01/29 01:56:02;;;;;;;;;;;18.10;38.50;;;;;;466602;256;2209;-54
2021/01/29 01:58:03;;;;;;;;;;;18.10;38.50;;;;;;470745;253;1589;-54
2021/01/29 02:00:04;;;;;;;;;;;18.10;38.40;;;;;;466653;255;1230;-53
2021/01/29 02:02:05;;;;;;;;;;;18.20;38.40;;;;;;470768;253;1390;-54
2021/01/29 02:04:07;;;;;;;;;;;18.20;38.40;;;;;;466714;255;1154;-53
2021/01/29 02:06:08;;;;;;;;;;;18.20;38.30;;;;;;470893;253;1345;-54
2021/01/29 02:08:09;;;;;;;;;;;18.20;38.30;;;;;;466614;255;1265;-54
2021/01/29 02:10:10;;;;;;;;;;;18.30;38.30;;;;;;470711;253;1168;-53
2021/01/29 02:12:12;;;;;;;;;;;18.30;38.20;;;;;;466693;255;1263;-53
2021/01/29 02:14:13;;;;;;;;;;;18.30;38.20;;;;;;470805;253;1307;-53
2021/01/29 02:16:14;;;;;;;;;;;18.30;38.20;;;;;;466603;256;2133;-53
2021/01/29 02:18:16;;;;;;;;;;;18.30;38.10;;;;;;470736;253;1251;-53
2021/01/29 02:20:17;;;;;;;;;;;18.40;38.20;;;;;;466704;255;1144;-53
2021/01/29 02:22:18;;;;;;;;;;;18.40;38.10;;;;;;470674;253;1353;-53
2021/01/29 02:24:19;;;;;;;;;;;18.40;38.10;;;;;;466628;256;1260;-53
2021/01/29 02:26:21;;;;;;;;;;;18.40;38.10;;;;;;470701;253;1242;-53
2021/01/29 02:28:22;;;;;;;;;;;18.50;38.10;;;;;;466699;255;1334;-53
2021/01/29 02:30:23;;;;;;;;;;;18.50;38.10;;;;;;470703;253;1311;-54
2021/01/29 02:32:25;;;;;;;;;;;18.50;38.00;;;;;;466691;255;1268;-53
2021/01/29 02:34:26;;;;;;;;;;;18.50;38.00;;;;;;470718;253;2159;-54
2021/01/29 02:36:27;;;;;;;;;;;18.50;38.00;;;;;;466665;255;1160;-53
2021/01/29 02:38:28;;;;;;;;;;;18.50;37.90;;;;;;470706;253;1255;-54
2021/01/29 02:40:30;;;;;;;;;;;18.50;37.90;;;;;;466667;256;1397;-53
2021/01/29 02:42:31;;;;;;;;;;;18.60;37.90;;;;;;470771;253;1263;-54
2021/01/29 02:44:32;;;;;;;;;;;18.60;37.90;;;;;;466790;255;1239;-53
2021/01/29 02:46:34;;;;;;;;;;;18.60;37.90;;;;;;470832;253;1132;-53
2021/01/29 02:48:35;;;;;;;;;;;18.60;37.90;;;;;;466638;255;1425;-53
2021/01/29 02:50:36;;;;;;;;;;;18.60;37.80;;;;;;470777;253;1225;-54
2021/01/29 02:52:37;;;;;;;;;;;18.70;37.90;;;;;;466668;255;1271;-53
2021/01/29 02:54:39;;;;;;;;;;;18.70;37.80;;;;;;470708;253;2195;-53
2021/01/29 02:56:40;;;;;;;;;;;18.70;37.80;;;;;;466692;255;1146;-53
2021/01/29 02:58:41;;;;;;;;;;;18.70;37.80;;;;;;470674;253;1313;-53
2021/01/29 03:00:43;;;;;;;;;;;18.70;37.80;;;;;;466659;255;1354;-54
2021/01/29 03:02:44;;;;;;;;;;;18.70;37.70;;;;;;470756;253;1278;-54
2021/01/29 03:04:45;;;;;;;;;;;18.80;37.80;;;;;;466715;255;1233;-54
2021/01/29 03:06:47;;;;;;;;;;;18.80;37.80;;;;;;470672;253;1204;-54
2021/01/29 03:08:48;;;;;;;;;;;18.70;37.70;;;;;;466605;256;2168;-53
2021/01/29 03:10:49;;;;;;;;;;;18.80;37.70;;;;;;470700;253;1120;-53
2021/01/29 03:12:50;;;;;;;;;;;18.80;37.70;;;;;;466612;255;1346;-53
2021/01/29 03:14:52;;;;;;;;;;;18.80;37.60;;;;;;470733;253;2164;-54
2021/01/29 03:16:53;;;;;;;;;;;18.80;37.60;;;;;;466571;256;1259;-53
2021/01/29 03:18:54;;;;;;;;;;;18.80;37.60;;;;;;470711;253;1162;-53
2021/01/29 03:20:56;;;;;;;;;;;18.90;37.60;;;;;;466585;256;1216;-54
2021/01/29 03:22:57;;;;;;;;;;;18.90;37.60;;;;;;470790;253;1276;-54
2021/01/29 03:24:58;;;;;;;;;;;18.90;37.60;;;;;;466619;255;1250;-54
2021/01/29 03:26:59;;;;;;;;;;;18.90;37.60;;;;;;470735;253;1285;-54
2021/01/29 03:29:01;;;;;;;;;;;18.90;37.50;;;;;;466615;256;1248;-53
2021/01/29 03:31:02;;;;;;;;;;;18.90;37.50;;;;;;470671;253;1148;-53
2021/01/29 03:33:03;;;;;;;;;;;18.90;37.50;;;;;;466656;255;1213;-54
2021/01/29 03:35:05;;;;;;;;;;;18.90;37.50;;;;;;470778;253;2152;-53
2021/01/29 03:37:06;;;;;;;;;;;19.00;37.50;;;;;;466555;256;1222;-53
2021/01/29 03:39:07;;;;;;;;;;;19.00;37.50;;;;;;470788;253;1223;-54
2021/01/29 03:41:09;;;;;;;;;;;19.00;37.40;;;;;;466718;255;1163;-53
2021/01/29 03:43:10;;;;;;;;;;;19.00;37.40;;;;;;470727;253;1446;-53
2021/01/29 03:45:11;;;;;;;;;;;19.00;37.40;;;;;;466671;255;1230;-54
2021/01/29 03:47:12;;;;;;;;;;;19.00;37.40;;;;;;470711;253;1223;-54
2021/01/29 03:49:14;;;;;;;;;;;19.00;37.40;;;;;;466712;255;1155;-53
2021/01/29 03:51:15;;;;;;;;;;;19.00;37.40;;;;;;470994;253;1227;-53
2021/01/29 03:53:16;;;;;;;;;;;19.00;37.40;;;;;;466631;256;1553;-53
2021/01/29 03:55:18;;;;;;;;;;;19.10;37.40;;;;;;470689;253;2152;-53
2021/01/29 03:57:19;;;;;;;;;;;19.10;37.40;;;;;;466637;256;1266;-54
2021/01/29 03:59:20;;;;;;;;;;;19.10;37.40;;;;;;470836;253;1285;-54
2021/01/29 04:01:22;;;;;;;;;;;19.10;37.40;;;;;;466703;255;1137;-54
2021/01/29 04:03:23;;;;;;;;;;;19.10;37.40;;;;;;470873;253;1366;-53
2021/01/29 04:05:24;;;;;;;;;;;19.10;37.40;;;;;;466682;255;1223;-53
2021/01/29 04:07:26;;;;;;;;;;;19.10;37.40;;;;;;470661;253;1230;-53
2021/01/29 04:09:27;;;;;;;;;;;19.10;37.40;;;;;;466591;256;1199;-54
2021/01/29 04:11:28;;;;;;;;;;;19.10;37.40;;;;;;470738;253;1166;-54
2021/01/29 04:13:29;;;;;;;;;;;19.10;37.40;;;;;;466612;256;1280;-53
2021/01/29 04:15:31;;;;;;;;;;;19.10;37.40;;;;;;470679;253;2152;-53
2021/01/29 04:17:32;;;;;;;;;;;19.20;37.40;;;;;;466679;255;1276;-53
2021/01/29 04:19:33;;;;;;;;;;;19.20;37.40;;;;;;470715;253;1313;-54
2021/01/29 04:21:34;;;;;;;;;;;19.20;37.40;;;;;;466690;255;1188;-53
2021/01/29 04:23:36;;;;;;;;;;;19.20;37.40;;;;;;470665;253;1232;-53
2021/01/29 04:25:38;;;;;;;;;;;19.20;37.40;;;;;;466814;255;1348;-54
2021/01/29 04:27:39;;;;;;;;;;;19.20;37.30;;;;;;470734;253;1353;-53
2021/01/29 04:29:40;;;;;;;;;;;19.20;37.40;;;;;;466646;255;1226;-53
2021/01/29 04:31:41;;;;;;;;;;;19.20;37.40;;;;;;470711;253;1163;-53
2021/01/29 04:33:43;;;;;;;;;;;19.20;37.30;;;;;;466669;255;1237;-53
2021/01/29 04:35:44;;;;;;;;;;;19.30;37.40;;;;;;470691;253;2203;-54
2021/01/29 04:37:46;;;;;;;;;;;19.20;37.30;;;;;;466649;255;1261;-53
2021/01/29 04:39:47;;;;;;;;;;;19.20;36.00;;;;;;470684;253;1230;-53
2021/01/29 04:41:48;;;;;;;;;;;19.30;37.40;;;;;;466671;255;1159;-54
2021/01/29 04:43:49;;;;;;;;;;;19.30;37.40;;;;;;470661;253;1289;-53
2021/01/29 04:45:51;;;;;;;;;;;19.30;37.40;;;;;;466809;255;1288;-54
2021/01/29 04:47:52;;;;;;;;;;;19.30;37.40;;;;;;470558;253;1368;-53
2021/01/29 04:49:53;;;;;;;;;;;19.30;37.30;;;;;;466637;255;1415;-54
2021/01/29 04:51:55;;;;;;;;;;;19.30;37.30;;;;;;470667;251;1273;-54
2021/01/29 04:53:56;;;;;;;;;;;19.30;37.30;;;;;;466601;255;1232;-54
2021/01/29 04:55:57;;;;;;;;;;;19.30;37.30;;;;;;470650;253;2139;-53
2021/01/29 04:57:58;;;;;;;;;;;19.30;37.30;;;;;;466655;253;1261;-53
2021/01/29 05:00:00;;;;;;;;;;;19.30;37.30;;;;;;470871;253;1124;-53
2021/01/29 05:02:01;;;;;;;;;;;19.30;37.30;;;;;;466634;256;1320;-54
2021/01/29 05:04:02;;;;;;;;;;;19.40;37.30;;;;;;470718;253;1164;-53
2021/01/29 05:06:03;;;;;;;;;;;19.40;37.30;;;;;;466590;256;1208;-53
2021/01/29 05:08:05;;;;;;;;;;;19.40;37.00;;;;;;470866;251;1286;-53
2021/01/29 05:10:06;;;;;;;;;;;19.50;36.90;;;;;;466687;255;1232;-53
2021/01/29 05:12:07;;;;;;;;;;;19.50;36.90;;;;;;470764;253;1249;-53
2021/01/29 05:14:09;;;;;;;;;;;19.40;36.90;;;;;;466641;256;1161;-53
2021/01/29 05:16:10;;;;;;;;;;;19.40;37.10;;;;;;470816;253;2160;-53
2021/01/29 05:18:11;;;;;;;;;;;19.30;37.20;;;;;;466634;256;1308;-53
2021/01/29 05:20:13;;;;;;;;;;;19.30;37.30;;;;;;470953;253;1300;-53
2021/01/29 05:22:14;;;;;;;;;;;19.20;37.40;;;;;;466599;255;1287;-53
2021/01/29 05:24:15;;;;;;;;;;;19.10;37.40;;;;;;470642;253;1267;-54
2021/01/29 05:26:17;;;;;;;;;;;19.10;37.50;;;;;;466554;256;1323;-53
2021/01/29 05:28:18;;;;;;;;;;;19.10;37.60;;;;;;470630;253;1350;-53
2021/01/29 05:30:19;;;;;;;;;;;19.00;37.70;;;;;;466693;255;1162;-53
2021/01/29 05:32:20;;;;;;;;;;;19.00;37.80;;;;;;470680;253;1252;-53
2021/01/29 05:34:22;;;;;;;;;;;18.90;37.80;;;;;;466535;255;1193;-53
2021/01/29 05:36:23;;;;;;;;;;;18.90;37.90;;;;;;470640;253;2136;-53
2021/01/29 05:38:24;;;;;;;;;;;18.80;38.00;;;;;;466554;255;1215;-53
2021/01/29 05:40:26;;;;;;;;;;;18.80;38.00;;;;;;470681;252;1385;-53
2021/01/29 05:42:27;;;;;;;;;;;18.80;38.10;;;;;;466612;255;1255;-53
2021/01/29 05:44:28;;;;;;;;;;;18.80;38.10;;;;;;470591;253;1457;-54
2021/01/29 05:46:29;;;;;;;;;;;18.70;38.20;;;;;;466495;255;1516;-54
2021/01/29 05:48:31;;;;;;;;;;;18.70;38.30;;;;;;470558;253;1319;-53
2021/01/29 05:50:32;;;;;;;;;;;18.60;38.30;;;;;;466638;255;1203;-53
2021/01/29 05:52:33;;;;;;;;;;;18.60;38.30;;;;;;470567;253;1269;-53
2021/01/29 05:54:35;;;;;;;;;;;18.60;38.40;;;;;;466538;255;1154;-53
2021/01/29 05:56:36;;;;;;;;;;;18.50;38.40;;;;;;470679;253;2155;-53
2021/01/29 05:58:37;;;;;;;;;;;18.50;38.50;;;;;;466560;255;1441;-53
2021/01/29 06:00:38;;;;;;;;;;;18.50;38.50;;;;;;470568;253;1293;-54
2021/01/29 06:02:40;;;;;;;;;;;18.50;38.60;;;;;;466492;252;1346;-53
2021/01/29 06:04:41;;;;;;;;;;;18.40;38.60;;;;;;470577;253;1308;-53
2021/01/29 06:06:42;;;;;;;;;;;18.40;38.60;;;;;;466520;255;1272;-53
2021/01/29 06:08:43;;;;;;;;;;;18.40;38.70;;;;;;470670;253;1356;-53
2021/01/29 06:10:45;;;;;;;;;;;18.40;38.70;;;;;;466454;255;1489;-53
2021/01/29 06:12:46;;;;;;;;;;;18.30;38.70;;;;;;470627;253;1475;-53
2021/01/29 06:14:47;;;;;;;;;;;18.30;38.80;;;;;;466547;255;1247;-53
2021/01/29 06:16:48;;;;;;;;;;;18.30;38.80;;;;;;470582;253;2140;-53
2021/01/29 06:18:50;;;;;;;;;;;18.30;38.80;;;;;;466393;255;1499;-53
2021/01/29 06:20:51;;;;;;;;;;;18.30;38.90;;;;;;470529;253;1140;-53
2021/01/29 06:22:52;;;;;;;;;;;18.20;38.90;;;;;;466358;256;1354;-54
2021/01/29 06:24:54;;;;;;;;;;;18.20;38.90;;;;;;470364;253;1500;-53
2021/01/29 06:26:55;;;;;;;;;;;18.20;39.00;;;;;;466300;255;1186;-54
2021/01/29 06:28:56;;;;;;;;;;;18.20;39.00;;;;;;470337;253;1270;-53
2021/01/29 06:30:58;;;;;;;;;;;18.10;39.00;;;;;;466371;255;1157;-53
2021/01/29 06:33:00;;;;;;;;;;;18.10;39.00;;;;;;470372;253;1181;-53
2021/01/29 06:35:00;;;;;;;;;;;18.10;39.00;;;;;;466247;255;2296;-53
2021/01/29 06:37:01;;;;;;;;;;;18.10;39.10;;;;;;470355;253;2140;-54
2021/01/29 06:39:03;;;;;;;;;;;18.10;39.10;;;;;;466295;255;1431;-53
2021/01/29 06:41:04;;;;;;;;;;;18.10;39.10;;;;;;470387;253;1315;-53
2021/01/29 06:43:05;;;;;;;;;;;18.00;39.10;;;;;;466367;255;1279;-53
2021/01/29 06:45:07;;;;;;;;;;;18.00;39.10;;;;;;470456;253;1509;-53
2021/01/29 06:47:08;;;;;;;;;;;18.00;39.20;;;;;;466408;255;1313;-53
2021/01/29 06:49:09;;;;;;;;;;;18.00;39.20;;;;;;470292;253;1273;-53
2021/01/29 06:51:10;;;;;;;;;;;18.00;39.20;;;;;;466314;255;1309;-53
2021/01/29 06:53:12;;;;;;;;;;;18.00;39.20;;;;;;470443;253;1266;-53
2021/01/29 06:55:13;;;;;;;;;;;17.90;39.30;;;;;;466319;256;1206;-53
2021/01/29 06:57:14;;;;;;;;;;;17.90;39.30;;;;;;470388;253;2202;-53
2021/01/29 06:59:16;;;;;;;;;;;17.90;39.30;;;;;;466287;255;1228;-53
2021/01/29 07:01:17;;;;;;;;;;;17.90;39.30;;;;;;470299;253;1164;-53
2021/01/29 07:03:18;;;;;;;;;;;17.90;39.30;;;;;;466219;255;1370;-53
2021/01/29 07:05:19;;;;;;;;;;;17.90;39.30;;;;;;470185;253;1380;-53
2021/01/29 07:07:21;;;;;;;;;;;17.90;39.30;;;;;;466155;255;1289;-54
2021/01/29 07:09:22;;;;;;;;;;;17.90;39.40;;;;;;470261;253;1273;-53
2021/01/29 07:11:24;;;;;;;;;;;17.90;39.40;;;;;;466080;255;1311;-53
2021/01/29 07:13:25;;;;;;;;;;;17.90;39.40;;;;;;470288;253;1423;-53
2021/01/29 07:15:26;;;;;;;;;;;17.80;39.40;;;;;;466267;255;1296;-53
2021/01/29 07:17:27;;;;;;;;;;;17.80;39.40;;;;;;470338;253;2151;-53
2021/01/29 07:19:29;;;;;;;;;;;17.80;39.40;;;;;;466351;255;1269;-53
2021/01/29 07:21:30;;;;;;;;;;;17.80;39.40;;;;;;470341;253;1260;-53
2021/01/29 07:23:32;;;;;;;;;;;17.80;39.40;;;;;;466214;255;1169;-53
2021/01/29 07:25:33;;;;;;;;;;;17.80;39.50;;;;;;470190;253;1516;-53
2021/01/29 07:27:34;;;;;;;;;;;17.80;39.50;;;;;;466047;255;1247;-54
2021/01/29 07:29:35;;;;;;;;;;;17.80;39.50;;;;;;470272;253;1471;-53
2021/01/29 07:31:37;;;;;;;;;;;17.80;39.50;;;;;;466068;255;1228;-53
2021/01/29 07:33:38;;;;;;;;;;;17.70;39.50;;;;;;470094;253;1262;-53
2021/01/29 07:35:39;;;;;;;;;;;17.70;39.50;;;;;;465906;255;1267;-53
2021/01/29 07:37:41;;;;;;;;;;;17.70;39.50;;;;;;470101;253;2217;-53
2021/01/29 07:39:42;;;;;;;;;;;17.70;39.50;;;;;;466138;256;1392;-54
2021/01/29 07:41:43;;;;;;;;;;;17.80;38.10;;;;;;470231;253;1298;-53
2021/01/29 07:43:44;;;;;;;;;;;17.80;39.40;;;;;;466223;255;1364;-53
2021/01/29 07:45:46;;;;;;;;;;;17.80;39.30;;;;;;470100;253;1282;-53
2021/01/29 07:47:47;;;;;;;;;;;17.80;39.30;;;;;;465986;256;1330;-54
2021/01/29 07:49:48;;;;;;;;;;;17.90;39.30;;;;;;470071;253;1137;-53
2021/01/29 07:51:49;;;;;;;;;;;17.90;39.30;;;;;;465918;255;1432;-54
2021/01/29 07:53:51;;;;;;;;;;;17.90;39.20;;;;;;470046;253;1361;-54
2021/01/29 07:55:54;;;;;;;;;;;17.90;39.20;;;;;;465973;255;1296;-53
2021/01/29 07:57:54;;;;;;;;;;;18.00;39.20;;;;;;469866;253;2376;-53
2021/01/29 07:59:55;;;;;;;;;;;18.00;39.20;;;;;;470071;252;1508;-53
2021/01/29 08:01:56;;;;;;;;;;;18.00;39.10;;;;;;465915;256;1422;-53
2021/01/29 08:03:57;;;;;;;;;;;18.00;39.10;;;;;;470128;253;1594;-53
2021/01/29 08:05:59;;;;;;;;;;;18.10;37.70;;;;;;466072;255;1300;-53
2021/01/29 08:08:00;;;;;;;;;;;18.10;39.00;;;;;;470251;253;1377;-53
2021/01/29 08:10:02;;;;;;;;;;;18.10;39.00;;;;;;465966;255;1200;-53
2021/01/29 08:12:03;;;;;;;;;;;18.10;39.00;;;;;;470043;253;1257;-53
2021/01/29 08:14:04;;;;;;;;;;;18.20;37.60;;;;;;465931;255;1264;-53
2021/01/29 08:16:06;;;;;;;;;;;18.20;38.90;;;;;;470001;253;1527;-54
2021/01/29 08:18:07;;;;;;;;;;;18.20;38.90;;;;;;465803;256;2126;-53
2021/01/29 08:20:08;;;;;;;;;;;18.20;38.90;;;;;;470165;253;1106;-54
2021/01/29 08:22:10;;;;;;;;;;;18.20;38.80;;;;;;466000;255;1361;-53
2021/01/29 08:24:11;;;;;;;;;;;18.20;38.80;;;;;;469962;253;1536;-53
2021/01/29 08:26:12;;;;;;;;;;;18.30;38.80;;;;;;465811;255;1361;-53
2021/01/29 08:28:13;;;;;;;;;;;18.30;38.70;;;;;;469947;253;1258;-54
2021/01/29 08:30:15;;;;;;;;;;;18.30;38.70;;;;;;470074;252;1255;-54
2021/01/29 08:32:16;;;;;;;;;;;18.30;38.70;;;;;;465968;256;1433;-53
2021/01/29 08:34:17;;;;;;;;;;;18.30;37.30;;;;;;469963;253;1124;-54
2021/01/29 08:36:19;;;;;;;;;;;18.40;38.70;;;;;;465964;255;1231;-54
2021/01/29 08:38:20;;;;;;;;;;;18.40;38.60;;;;;;470018;253;2116;-53
2021/01/29 08:40:21;;;;;;;;;;;18.40;38.60;;;;;;466025;256;1065;-53
2021/01/29 08:42:22;;;;;;;;;;;18.40;37.30;;;;;;470058;253;1302;-53
2021/01/29 08:44:24;;;;;;;;;;;18.50;38.60;;;;;;466052;255;1186;-54
2021/01/29 08:46:26;;;;;;;;;;;18.50;38.50;;;;;;469988;253;1438;-53
2021/01/29 08:48:27;;;;;;;;;;;18.50;38.50;;;;;;465978;256;1260;-53
2021/01/29 08:50:28;;;;;;;;;;;18.50;38.50;;;;;;469929;253;1210;-54
2021/01/29 08:52:30;;;;;;;;;;;18.50;38.40;;;;;;465964;255;1271;-53
2021/01/29 08:54:31;;;;;;;;;;;18.50;38.40;;;;;;469912;253;1382;-53
2021/01/29 08:56:32;;;;;;;;;;;18.60;37.10;;;;;;466079;255;2196;-54
2021/01/29 08:58:34;;;;;;;;;;;18.60;37.10;;;;;;469992;253;1468;-54
2021/01/29 09:00:35;;;;;;;;;;;18.60;38.40;;;;;;465919;256;1150;-53
2021/01/29 09:02:37;;;;;;;;;;;18.60;38.30;;;;;;470037;253;1479;-54
2021/01/29 09:04:38;;;;;;;;;;;18.60;38.30;;;;;;466183;256;1356;-53
2021/01/29 09:06:39;;;;;;;;;;;18.60;38.30;;;;;;470162;253;1187;-54
2021/01/29 09:08:41;;;;;;;;;;;18.60;38.30;;;;;;466095;255;1276;-53
2021/01/29 09:10:42;;;;;;;;;;;18.70;38.30;;;;;;470066;253;1253;-54
2021/01/29 09:12:43;;;;;;;;;;;18.70;37.00;;;;;;466036;255;1291;-53
2021/01/29 09:14:44;;;;;;;;;;;18.70;38.30;;;;;;469978;253;1576;-54
2021/01/29 09:16:46;;;;;;;;;;;18.70;38.20;;;;;;466033;256;2193;-53
2021/01/29 09:18:48;;;;;;;;;;;18.70;38.20;;;;;;470560;253;1248;-54
2021/01/29 09:20:48;;;;;;;;;;;18.70;38.20;;;;;;465876;255;2464;-54
2021/01/29 09:22:50;;;;;;;;;;;18.80;38.20;;;;;;470085;253;1098;-54
2021/01/29 09:24:51;;;;;;;;;;;18.80;38.20;;;;;;465964;255;1369;-54
2021/01/29 09:26:52;;;;;;;;;;;18.80;38.20;;;;;;469377;253;1324;-54
2021/01/29 09:28:53;;;;;;;;;;;18.80;38.10;;;;;;466090;255;1244;-54
2021/01/29 09:30:56;;;;;;;;;;;18.80;38.10;;;;;;470155;253;1410;-53
2021/01/29 09:32:58;;;;;;;;;;;18.80;38.10;;;;;;466144;256;1346;-54
2021/01/29 09:34:59;;;;;;;;;;;18.80;38.10;;;;;;470239;253;1378;-53
2021/01/29 09:37:00;;;;;;;;;;;18.80;38.10;;;;;;466138;256;2185;-54
2021/01/29 09:39:01;;;;;;;;;;;18.80;38.10;;;;;;470161;250;1156;-54
2021/01/29 09:41:03;;;;;;;;;;;18.90;38.10;;;;;;465984;256;1148;-54
2021/01/29 09:43:09;;;;;;;;;;;18.90;38.10;;;;;;470094;253;1404;-54
2021/01/29 09:45:06;;;;;;;;;;;18.90;36.70;;;;;;465789;256;2057;-54
2021/01/29 09:47:07;;;;;;;;;;;18.90;38.00;;;;;;470123;253;1516;-54
2021/01/29 09:49:08;;;;;;;;;;;18.90;38.00;;;;;;465946;255;1472;-54
2021/01/29 09:51:10;;;;;;;;;;;18.90;38.00;;;;;;469869;253;1093;-54
2021/01/29 09:53:11;;;;;;;;;;;18.90;38.00;;;;;;465850;255;1573;-54
2021/01/29 09:55:12;;;;;;;;;;;18.90;38.00;;;;;;470357;253;1309;-54
2021/01/29 09:57:16;;;;;;;;;;;19.00;38.00;;;;;;465907;255;2150;-53
2021/01/29 09:59:17;;;;;;;;;;;19.00;38.00;;;;;;469970;253;1356;-53
2021/01/29 10:01:19;;;;;;;;;;;19.00;38.00;;;;;;465871;255;1163;-53
2021/01/29 10:03:19;;;;;;;;;;;19.00;38.00;;;;;;469836;253;1903;-54
2021/01/29 10:05:21;;;;;;;;;;;19.00;37.90;;;;;;470204;252;1329;-53
2021/01/29 10:07:22;;;;;;;;;;;19.00;37.90;;;;;;466117;256;1230;-54
2021/01/29 10:09:23;;;;;;;;;;;19.00;37.90;;;;;;470116;253;1227;-54
2021/01/29 10:11:25;;;;;;;;;;;19.00;37.90;;;;;;466197;255;1526;-54
2021/01/29 10:13:26;;;;;;;;;;;19.00;37.90;;;;;;470165;253;1319;-54
2021/01/29 10:15:27;;;;;;;;;;;19.00;37.80;;;;;;465997;256;1120;-53
2021/01/29 10:17:29;;;;;;;;;;;19.10;37.90;;;;;;470188;253;2191;-53
2021/01/29 10:19:30;;;;;;;;;;;19.10;36.60;;;;;;465987;256;1255;-54
2021/01/29 10:21:31;;;;;;;;;;;19.00;36.50;;;;;;470164;253;1194;-54
2021/01/29 10:23:33;;;;;;;;;;;19.10;37.90;;;;;;466050;255;1389;-53
2021/01/29 10:25:34;;;;;;;;;;;19.10;37.80;;;;;;469790;253;1195;-54
2021/01/29 10:27:36;;;;;;;;;;;19.10;37.90;;;;;;465707;255;1367;-53
2021/01/29 10:29:37;;;;;;;;;;;19.10;37.80;;;;;;470054;253;1342;-54
2021/01/29 10:31:38;;;;;;;;;;;19.10;37.80;;;;;;466075;255;1165;-54
2021/01/29 10:33:39;;;;;;;;;;;19.10;37.90;;;;;;470267;253;1299;-54
2021/01/29 10:35:41;;;;;;;;;;;19.10;37.80;;;;;;466014;256;1290;-54
2021/01/29 10:37:42;;;;;;;;;;;19.10;37.80;;;;;;470236;253;2183;-54
2021/01/29 10:39:43;;;;;;;;;;;19.10;36.50;;;;;;465969;256;1269;-53
2021/01/29 10:41:47;;;;;;;;;;;19.10;37.80;;;;;;470089;253;1213;-54
2021/01/29 10:43:46;;;;;;;;;;;19.20;37.80;;;;;;465806;255;2382;-53
2021/01/29 10:45:49;;;;;;;;;;;19.20;37.80;;;;;;470169;253;1205;-54
2021/01/29 10:47:49;;;;;;;;;;;19.20;37.80;;;;;;466013;252;2150;-54
2021/01/29 10:49:50;;;;;;;;;;;19.20;37.80;;;;;;470133;253;1303;-53
2021/01/29 10:51:51;;;;;;;;;;;19.20;37.70;;;;;;465986;256;1272;-53
2021/01/29 10:53:54;;;;;;;;;;;19.20;37.70;;;;;;470438;253;1270;-53
2021/01/29 10:55:55;;;;;;;;;;;19.30;36.50;;;;;;466088;255;1188;-54
2021/01/29 10:57:56;;;;;;;;;;;19.20;37.70;;;;;;470014;252;2159;-54
2021/01/29 10:59:57;;;;;;;;;;;19.40;37.60;;;;;;465845;255;1243;-53
2021/01/29 11:01:59;;;;;;;;;;;19.40;37.40;;;;;;469951;253;1189;-53
2021/01/29 11:04:04;;;;;;;;;;;19.40;37.40;;;;;;465861;255;1333;-53
2021/01/29 11:06:05;;;;;;;;;;;19.40;37.60;;;;;;470014;253;1211;-53
2021/01/29 11:08:06;;;;;;;;;;;19.30;37.50;;;;;;466108;256;1183;-54
2021/01/29 11:10:08;;;;;;;;;;;19.20;36.50;;;;;;470033;253;1310;-53
2021/01/29 11:12:09;;;;;;;;;;;19.20;37.80;;;;;;466343;255;1386;-53
2021/01/29 11:14:10;;;;;;;;;;;19.10;37.90;;;;;;470230;253;1402;-53
2021/01/29 11:16:12;;;;;;;;;;;19.10;38.00;;;;;;465968;256;1491;-53
2021/01/29 11:18:13;;;;;;;;;;;19.00;38.10;;;;;;470574;253;2191;-53
2021/01/29 11:20:14;;;;;;;;;;;19.00;36.90;;;;;;465900;256;1317;-53
2021/01/29 11:22:15;;;;;;;;;;;19.00;38.30;;;;;;470026;253;1478;-53
2021/01/29 11:24:17;;;;;;;;;;;18.90;38.30;;;;;;465966;256;1236;-53
2021/01/29 11:26:18;;;;;;;;;;;18.90;38.30;;;;;;470229;253;1428;-53
2021/01/29 11:28:20;;;;;;;;;;;18.90;38.40;;;;;;466046;255;1408;-53
2021/01/29 11:30:21;;;;;;;;;;;18.80;38.50;;;;;;470183;253;1367;-53
2021/01/29 11:32:22;;;;;;;;;;;18.80;38.60;;;;;;466339;255;1409;-53
2021/01/29 11:34:23;;;;;;;;;;;18.70;38.60;;;;;;470255;253;1236;-53
2021/01/29 11:36:27;;;;;;;;;;;18.70;37.40;;;;;;465895;256;1528;-54
2021/01/29 11:38:28;;;;;;;;;;;18.70;38.70;;;;;;470007;253;2195;-53
2021/01/29 11:40:29;;;;;;;;;;;18.60;38.70;;;;;;466105;255;1469;-53
2021/01/29 11:42:31;;;;;;;;;;;18.60;38.90;;;;;;470311;253;1411;-54
2021/01/29 11:44:32;;;;;;;;;;;18.50;38.90;;;;;;466051;256;1304;-53
2021/01/29 11:46:34;;;;;;;;;;;18.50;38.90;;;;;;470233;253;1141;-53
2021/01/29 11:48:35;;;;;;;;;;;18.50;39.00;;;;;;466084;256;1295;-53
2021/01/29 11:50:36;;;;;;;;;;;18.40;39.00;;;;;;470134;253;1238;-53
2021/01/29 11:52:37;;;;;;;;;;;18.40;39.10;;;;;;466108;255;1392;-54
2021/01/29 11:54:39;;;;;;;;;;;18.40;39.10;;;;;;470201;253;1268;-53
2021/01/29 11:56:41;;;;;;;;;;;18.30;39.20;;;;;;466062;255;2451;-54